Terminal Aerodrome Forecast
Issued by NWS

Home | Current Version | Previous Version | Text Only | Print | Product List | Glossary On
Versions: 1 2 3 4 5 6 7 8 9 10 11 12 13 14 15 16 17 18 19 20 21 22
000
FTUS46 KSEW 010536
TAFHQM
TAF
KHQM 010536Z 0106/0206 20012KT P6SM SCT025 BKN040 OVC070
      TEMPO 0106/0110 4SM -RA BKN025 OVC040
     FM011000 23008KT P6SM -RA BKN020 OVC040
     FM011800 23008KT P6SM VCSH BKN025 BKN050
     FM012100 23008KT P6SM SCT030 BKN045=

USA.gov is the U.S. government's official web portal to all federal, state and local government web resources and services.